sensor_id;sensor_type;location;lat;lon;timestamp;P1;durP1;ratioP1;P2;durP2;ratioP2
39094;SDS011;24840;47.508;19.376;2024-02-14T00:00:42;4.87;;;2.43;;
39094;SDS011;24840;47.508;19.376;2024-02-14T00:03:11;3.20;;;2.47;;
39094;SDS011;24840;47.508;19.376;2024-02-14T00:05:37;4.23;;;3.23;;
39094;SDS011;24840;47.508;19.376;2024-02-14T00:08:05;3.43;;;2.57;;
39094;SDS011;24840;47.508;19.376;2024-02-14T00:10:32;3.03;;;2.73;;
39094;SDS011;24840;47.508;19.376;2024-02-14T00:12:58;5.80;;;2.57;;
39094;SDS011;24840;47.508;19.376;2024-02-14T00:15:24;3.17;;;2.63;;
39094;SDS011;24840;47.508;19.376;2024-02-14T00:17:50;7.13;;;2.83;;
39094;SDS011;24840;47.508;19.376;2024-02-14T00:20:20;4.87;;;2.50;;
39094;SDS011;24840;47.508;19.376;2024-02-14T00:22:46;4.10;;;2.50;;
39094;SDS011;24840;47.508;19.376;2024-02-14T00:25:13;4.20;;;2.80;;
39094;SDS011;24840;47.508;19.376;2024-02-14T00:27:39;5.60;;;2.60;;
39094;SDS011;24840;47.508;19.376;2024-02-14T00:30:06;3.73;;;3.07;;
39094;SDS011;24840;47.508;19.376;2024-02-14T00:32:32;3.97;;;3.03;;
39094;SDS011;24840;47.508;19.376;2024-02-14T00:34:58;4.43;;;2.90;;
39094;SDS011;24840;47.508;19.376;2024-02-14T00:37:24;2.90;;;2.30;;
39094;SDS011;24840;47.508;19.376;2024-02-14T00:39:51;5.30;;;3.37;;
39094;SDS011;24840;47.508;19.376;2024-02-14T00:42:17;4.63;;;2.70;;
39094;SDS011;24840;47.508;19.376;2024-02-14T00:44:43;11.60;;;4.70;;
39094;SDS011;24840;47.508;19.376;2024-02-14T00:47:09;12.70;;;4.13;;
39094;SDS011;24840;47.508;19.376;2024-02-14T00:49:35;6.33;;;3.30;;
39094;SDS011;24840;47.508;19.376;2024-02-14T00:52:02;4.13;;;3.00;;
39094;SDS011;24840;47.508;19.376;2024-02-14T00:54:28;3.80;;;2.63;;
39094;SDS011;24840;47.508;19.376;2024-02-14T00:56:54;6.37;;;3.13;;
39094;SDS011;24840;47.508;19.376;2024-02-14T00:59:20;3.70;;;2.70;;
39094;SDS011;24840;47.508;19.376;2024-02-14T01:01:46;3.50;;;2.70;;
39094;SDS011;24840;47.508;19.376;2024-02-14T01:04:12;5.80;;;3.10;;
39094;SDS011;24840;47.508;19.376;2024-02-14T01:06:38;3.93;;;2.70;;
39094;SDS011;24840;47.508;19.376;2024-02-14T01:09:04;6.03;;;3.37;;
39094;SDS011;24840;47.508;19.376;2024-02-14T01:11:30;4.07;;;2.60;;
39094;SDS011;24840;47.508;19.376;2024-02-14T01:13:56;6.80;;;2.97;;
39094;SDS011;24840;47.508;19.376;2024-02-14T01:16:24;3.43;;;2.70;;
39094;SDS011;24840;47.508;19.376;2024-02-14T01:18:50;5.67;;;3.20;;
39094;SDS011;24840;47.508;19.376;2024-02-14T01:21:16;8.63;;;3.70;;
39094;SDS011;24840;47.508;19.376;2024-02-14T01:23:43;4.60;;;2.73;;
39094;SDS011;24840;47.508;19.376;2024-02-14T01:26:09;4.23;;;2.97;;
39094;SDS011;24840;47.508;19.376;2024-02-14T01:28:35;3.90;;;2.83;;
39094;SDS011;24840;47.508;19.376;2024-02-14T01:31:01;6.80;;;3.10;;
39094;SDS011;24840;47.508;19.376;2024-02-14T01:33:27;5.63;;;3.23;;
39094;SDS011;24840;47.508;19.376;2024-02-14T01:35:57;3.77;;;2.57;;
39094;SDS011;24840;47.508;19.376;2024-02-14T01:38:23;5.27;;;3.33;;
39094;SDS011;24840;47.508;19.376;2024-02-14T01:40:49;4.43;;;3.00;;
39094;SDS011;24840;47.508;19.376;2024-02-14T01:43:15;3.73;;;2.33;;
39094;SDS011;24840;47.508;19.376;2024-02-14T01:45:45;5.90;;;3.43;;
39094;SDS011;24840;47.508;19.376;2024-02-14T01:48:11;4.87;;;3.00;;
39094;SDS011;24840;47.508;19.376;2024-02-14T01:50:43;3.57;;;2.70;;
39094;SDS011;24840;47.508;19.376;2024-02-14T01:53:10;3.90;;;2.93;;
39094;SDS011;24840;47.508;19.376;2024-02-14T01:55:37;4.50;;;2.60;;
39094;SDS011;24840;47.508;19.376;2024-02-14T01:58:03;4.00;;;3.10;;
39094;SDS011;24840;47.508;19.376;2024-02-14T02:00:29;4.83;;;2.93;;
39094;SDS011;24840;47.508;19.376;2024-02-14T02:02:56;7.30;;;3.27;;
39094;SDS011;24840;47.508;19.376;2024-02-14T02:05:23;7.93;;;3.57;;
39094;SDS011;24840;47.508;19.376;2024-02-14T02:07:49;3.50;;;2.83;;
39094;SDS011;24840;47.508;19.376;2024-02-14T02:10:15;6.87;;;3.20;;
39094;SDS011;24840;47.508;19.376;2024-02-14T02:12:41;4.57;;;2.67;;
39094;SDS011;24840;47.508;19.376;2024-02-14T02:15:08;5.67;;;2.93;;
39094;SDS011;24840;47.508;19.376;2024-02-14T02:17:40;6.13;;;2.80;;
39094;SDS011;24840;47.508;19.376;2024-02-14T02:20:06;4.03;;;2.90;;
39094;SDS011;24840;47.508;19.376;2024-02-14T02:22:34;4.67;;;3.07;;
39094;SDS011;24840;47.508;19.376;2024-02-14T02:25:03;8.07;;;3.47;;
39094;SDS011;24840;47.508;19.376;2024-02-14T02:27:32;16.03;;;7.83;;
39094;SDS011;24840;47.508;19.376;2024-02-14T02:30:00;23.97;;;9.40;;
39094;SDS011;24840;47.508;19.376;2024-02-14T02:32:26;30.93;;;11.03;;
39094;SDS011;24840;47.508;19.376;2024-02-14T02:34:52;40.27;;;12.73;;
39094;SDS011;24840;47.508;19.376;2024-02-14T02:37:18;30.93;;;12.50;;
39094;SDS011;24840;47.508;19.376;2024-02-14T02:39:45;29.57;;;13.30;;
39094;SDS011;24840;47.508;19.376;2024-02-14T02:42:11;33.30;;;13.57;;
39094;SDS011;24840;47.508;19.376;2024-02-14T02:44:39;32.20;;;13.43;;
39094;SDS011;24840;47.508;19.376;2024-02-14T02:47:05;16.00;;;6.80;;
39094;SDS011;24840;47.508;19.376;2024-02-14T02:49:31;8.03;;;4.30;;
39094;SDS011;24840;47.508;19.376;2024-02-14T02:51:57;10.80;;;4.70;;
39094;SDS011;24840;47.508;19.376;2024-02-14T02:54:25;12.77;;;5.77;;
39094;SDS011;24840;47.508;19.376;2024-02-14T02:56:51;9.40;;;4.93;;
39094;SDS011;24840;47.508;19.376;2024-02-14T02:59:17;5.77;;;4.17;;
39094;SDS011;24840;47.508;19.376;2024-02-14T03:01:44;8.53;;;5.67;;
39094;SDS011;24840;47.508;19.376;2024-02-14T03:04:10;14.60;;;5.83;;
39094;SDS011;24840;47.508;19.376;2024-02-14T03:06:38;11.67;;;5.50;;
39094;SDS011;24840;47.508;19.376;2024-02-14T03:09:04;9.20;;;4.23;;
39094;SDS011;24840;47.508;19.376;2024-02-14T03:11:32;11.07;;;4.90;;
39094;SDS011;24840;47.508;19.376;2024-02-14T03:13:59;8.40;;;4.43;;
39094;SDS011;24840;47.508;19.376;2024-02-14T03:16:25;13.33;;;5.87;;
39094;SDS011;24840;47.508;19.376;2024-02-14T03:18:51;10.33;;;5.30;;
39094;SDS011;24840;47.508;19.376;2024-02-14T03:21:19;5.07;;;3.73;;
39094;SDS011;24840;47.508;19.376;2024-02-14T03:23:45;6.77;;;4.00;;
39094;SDS011;24840;47.508;19.376;2024-02-14T03:26:11;8.30;;;4.73;;
39094;SDS011;24840;47.508;19.376;2024-02-14T03:28:38;7.43;;;4.43;;
39094;SDS011;24840;47.508;19.376;2024-02-14T03:31:04;5.03;;;3.70;;
39094;SDS011;24840;47.508;19.376;2024-02-14T03:33:32;10.57;;;4.20;;
39094;SDS011;24840;47.508;19.376;2024-02-14T03:35:58;6.97;;;4.57;;
39094;SDS011;24840;47.508;19.376;2024-02-14T03:38:27;9.37;;;4.87;;
39094;SDS011;24840;47.508;19.376;2024-02-14T03:40:57;9.27;;;3.93;;
39094;SDS011;24840;47.508;19.376;2024-02-14T03:43:23;7.53;;;4.47;;
39094;SDS011;24840;47.508;19.376;2024-02-14T03:45:49;5.80;;;3.63;;
39094;SDS011;24840;47.508;19.376;2024-02-14T03:48:18;5.37;;;2.87;;
39094;SDS011;24840;47.508;19.376;2024-02-14T03:50:44;4.73;;;3.10;;
39094;SDS011;24840;47.508;19.376;2024-02-14T03:53:11;6.10;;;3.80;;
39094;SDS011;24840;47.508;19.376;2024-02-14T03:55:37;7.77;;;3.73;;
39094;SDS011;24840;47.508;19.376;2024-02-14T03:58:03;9.07;;;4.40;;
39094;SDS011;24840;47.508;19.376;2024-02-14T04:00:30;6.53;;;4.40;;
39094;SDS011;24840;47.508;19.376;2024-02-14T04:02:56;5.40;;;3.53;;
39094;SDS011;24840;47.508;19.376;2024-02-14T04:05:25;7.20;;;4.63;;
39094;SDS011;24840;47.508;19.376;2024-02-14T04:07:54;6.67;;;3.77;;
39094;SDS011;24840;47.508;19.376;2024-02-14T04:10:20;6.27;;;3.77;;
39094;SDS011;24840;47.508;19.376;2024-02-14T04:12:47;4.50;;;3.53;;
39094;SDS011;24840;47.508;19.376;2024-02-14T04:15:13;6.77;;;3.47;;
39094;SDS011;24840;47.508;19.376;2024-02-14T04:17:39;5.90;;;3.00;;
39094;SDS011;24840;47.508;19.376;2024-02-14T04:20:05;6.37;;;3.37;;
39094;SDS011;24840;47.508;19.376;2024-02-14T04:22:31;8.70;;;3.57;;
39094;SDS011;24840;47.508;19.376;2024-02-14T04:24:57;4.33;;;3.13;;
39094;SDS011;24840;47.508;19.376;2024-02-14T04:27:24;5.60;;;3.23;;
39094;SDS011;24840;47.508;19.376;2024-02-14T04:29:50;5.10;;;3.37;;
39094;SDS011;24840;47.508;19.376;2024-02-14T04:32:16;5.70;;;3.80;;
39094;SDS011;24840;47.508;19.376;2024-02-14T04:34:44;4.30;;;2.97;;
39094;SDS011;24840;47.508;19.376;2024-02-14T04:37:10;7.80;;;3.40;;
39094;SDS011;24840;47.508;19.376;2024-02-14T04:39:38;8.37;;;3.70;;
39094;SDS011;24840;47.508;19.376;2024-02-14T04:42:05;7.93;;;4.13;;
39094;SDS011;24840;47.508;19.376;2024-02-14T04:44:32;5.53;;;3.73;;
39094;SDS011;24840;47.508;19.376;2024-02-14T04:46:59;8.10;;;4.67;;
39094;SDS011;24840;47.508;19.376;2024-02-14T04:49:26;4.07;;;3.67;;
39094;SDS011;24840;47.508;19.376;2024-02-14T04:51:54;5.80;;;4.43;;
39094;SDS011;24840;47.508;19.376;2024-02-14T04:54:20;7.53;;;4.23;;
39094;SDS011;24840;47.508;19.376;2024-02-14T04:56:47;5.33;;;4.23;;
39094;SDS011;24840;47.508;19.376;2024-02-14T04:59:13;6.13;;;4.27;;
39094;SDS011;24840;47.508;19.376;2024-02-14T05:01:39;5.47;;;4.03;;
39094;SDS011;24840;47.508;19.376;2024-02-14T05:04:05;8.70;;;3.80;;
39094;SDS011;24840;47.508;19.376;2024-02-14T05:06:34;7.63;;;4.50;;
39094;SDS011;24840;47.508;19.376;2024-02-14T05:09:01;8.33;;;4.30;;
39094;SDS011;24840;47.508;19.376;2024-02-14T05:11:27;5.60;;;4.23;;
39094;SDS011;24840;47.508;19.376;2024-02-14T05:13:53;7.33;;;4.17;;
39094;SDS011;24840;47.508;19.376;2024-02-14T05:16:19;4.87;;;3.20;;
39094;SDS011;24840;47.508;19.376;2024-02-14T05:18:46;6.63;;;3.70;;
39094;SDS011;24840;47.508;19.376;2024-02-14T05:21:12;4.73;;;3.53;;
39094;SDS011;24840;47.508;19.376;2024-02-14T05:23:38;4.20;;;3.23;;
39094;SDS011;24840;47.508;19.376;2024-02-14T05:26:06;4.60;;;2.93;;
39094;SDS011;24840;47.508;19.376;2024-02-14T05:28:32;4.23;;;3.03;;
39094;SDS011;24840;47.508;19.376;2024-02-14T05:30:59;3.93;;;2.77;;
39094;SDS011;24840;47.508;19.376;2024-02-14T05:33:26;4.80;;;3.07;;
39094;SDS011;24840;47.508;19.376;2024-02-14T05:35:52;4.97;;;2.63;;
39094;SDS011;24840;47.508;19.376;2024-02-14T05:38:18;5.40;;;3.00;;
39094;SDS011;24840;47.508;19.376;2024-02-14T05:40:45;4.27;;;2.50;;
39094;SDS011;24840;47.508;19.376;2024-02-14T05:43:11;2.67;;;2.00;;
39094;SDS011;24840;47.508;19.376;2024-02-14T05:45:37;5.70;;;2.60;;
39094;SDS011;24840;47.508;19.376;2024-02-14T05:48:04;3.20;;;2.03;;
39094;SDS011;24840;47.508;19.376;2024-02-14T05:50:30;4.53;;;2.47;;
39094;SDS011;24840;47.508;19.376;2024-02-14T05:52:56;5.27;;;3.10;;
39094;SDS011;24840;47.508;19.376;2024-02-14T05:55:22;3.13;;;2.20;;
39094;SDS011;24840;47.508;19.376;2024-02-14T05:57:49;3.80;;;2.40;;
39094;SDS011;24840;47.508;19.376;2024-02-14T06:00:17;3.13;;;1.87;;
39094;SDS011;24840;47.508;19.376;2024-02-14T06:02:44;4.80;;;2.30;;
39094;SDS011;24840;47.508;19.376;2024-02-14T06:05:11;5.87;;;2.43;;
39094;SDS011;24840;47.508;19.376;2024-02-14T06:07:37;9.33;;;4.53;;
39094;SDS011;24840;47.508;19.376;2024-02-14T06:10:03;7.30;;;4.73;;
39094;SDS011;24840;47.508;19.376;2024-02-14T06:12:31;7.40;;;5.13;;
39094;SDS011;24840;47.508;19.376;2024-02-14T06:14:57;8.63;;;4.53;;
39094;SDS011;24840;47.508;19.376;2024-02-14T06:17:23;6.83;;;4.43;;
39094;SDS011;24840;47.508;19.376;2024-02-14T06:19:51;4.63;;;2.53;;
39094;SDS011;24840;47.508;19.376;2024-02-14T06:22:17;4.53;;;2.70;;
39094;SDS011;24840;47.508;19.376;2024-02-14T06:24:43;2.37;;;1.63;;
39094;SDS011;24840;47.508;19.376;2024-02-14T06:27:09;3.70;;;2.17;;
39094;SDS011;24840;47.508;19.376;2024-02-14T06:29:35;2.83;;;2.00;;
39094;SDS011;24840;47.508;19.376;2024-02-14T06:32:01;7.33;;;2.73;;
39094;SDS011;24840;47.508;19.376;2024-02-14T06:34:27;4.67;;;2.47;;
39094;SDS011;24840;47.508;19.376;2024-02-14T06:36:54;4.70;;;2.20;;
39094;SDS011;24840;47.508;19.376;2024-02-14T06:39:20;7.70;;;2.37;;
39094;SDS011;24840;47.508;19.376;2024-02-14T06:41:46;3.50;;;1.83;;
39094;SDS011;24840;47.508;19.376;2024-02-14T06:44:13;5.57;;;1.73;;
39094;SDS011;24840;47.508;19.376;2024-02-14T06:46:39;3.73;;;1.77;;
39094;SDS011;24840;47.508;19.376;2024-02-14T06:49:06;3.23;;;1.57;;
39094;SDS011;24840;47.508;19.376;2024-02-14T06:51:32;6.17;;;1.60;;
39094;SDS011;24840;47.508;19.376;2024-02-14T06:53:58;2.10;;;1.60;;
39094;SDS011;24840;47.508;19.376;2024-02-14T06:56:25;4.33;;;1.60;;
39094;SDS011;24840;47.508;19.376;2024-02-14T06:58:51;3.13;;;1.60;;
39094;SDS011;24840;47.508;19.376;2024-02-14T07:01:20;1.67;;;0.73;;
39094;SDS011;24840;47.508;19.376;2024-02-14T07:03:49;4.40;;;1.50;;
39094;SDS011;24840;47.508;19.376;2024-02-14T07:06:16;3.43;;;1.40;;
39094;SDS011;24840;47.508;19.376;2024-02-14T07:08:44;1.77;;;1.23;;
39094;SDS011;24840;47.508;19.376;2024-02-14T07:11:10;1.70;;;1.20;;
39094;SDS011;24840;47.508;19.376;2024-02-14T07:13:36;3.60;;;1.43;;
39094;SDS011;24840;47.508;19.376;2024-02-14T07:16:02;2.10;;;1.27;;
39094;SDS011;24840;47.508;19.376;2024-02-14T07:18:28;2.67;;;1.47;;
39094;SDS011;24840;47.508;19.376;2024-02-14T07:20:55;2.93;;;1.67;;
39094;SDS011;24840;47.508;19.376;2024-02-14T07:23:21;2.17;;;1.20;;
39094;SDS011;24840;47.508;19.376;2024-02-14T07:25:47;6.23;;;1.20;;
39094;SDS011;24840;47.508;19.376;2024-02-14T07:28:13;2.57;;;1.50;;
39094;SDS011;24840;47.508;19.376;2024-02-14T07:30:39;2.50;;;1.70;;
39094;SDS011;24840;47.508;19.376;2024-02-14T07:33:09;1.37;;;0.70;;
39094;SDS011;24840;47.508;19.376;2024-02-14T07:35:36;1.20;;;0.90;;
39094;SDS011;24840;47.508;19.376;2024-02-14T07:38:02;2.40;;;1.43;;
39094;SDS011;24840;47.508;19.376;2024-02-14T07:40:29;3.97;;;1.53;;
39094;SDS011;24840;47.508;19.376;2024-02-14T07:42:58;2.37;;;1.70;;
39094;SDS011;24840;47.508;19.376;2024-02-14T07:45:24;2.70;;;1.63;;
39094;SDS011;24840;47.508;19.376;2024-02-14T07:47:50;2.73;;;1.13;;
39094;SDS011;24840;47.508;19.376;2024-02-14T07:50:16;2.73;;;1.60;;
39094;SDS011;24840;47.508;19.376;2024-02-14T07:52:43;2.43;;;1.47;;
39094;SDS011;24840;47.508;19.376;2024-02-14T07:55:09;1.73;;;1.13;;
39094;SDS011;24840;47.508;19.376;2024-02-14T07:57:39;3.87;;;1.60;;
39094;SDS011;24840;47.508;19.376;2024-02-14T08:00:07;4.27;;;1.50;;
39094;SDS011;24840;47.508;19.376;2024-02-14T08:02:34;3.10;;;1.80;;
39094;SDS011;24840;47.508;19.376;2024-02-14T08:05:01;3.17;;;1.40;;
39094;SDS011;24840;47.508;19.376;2024-02-14T08:07:28;3.27;;;1.70;;
39094;SDS011;24840;47.508;19.376;2024-02-14T08:09:54;2.20;;;1.53;;
39094;SDS011;24840;47.508;19.376;2024-02-14T08:12:20;4.67;;;1.97;;
39094;SDS011;24840;47.508;19.376;2024-02-14T08:14:48;2.37;;;1.73;;
39094;SDS011;24840;47.508;19.376;2024-02-14T08:17:14;5.00;;;2.37;;
39094;SDS011;24840;47.508;19.376;2024-02-14T08:19:40;3.47;;;1.77;;
39094;SDS011;24840;47.508;19.376;2024-02-14T08:22:06;6.30;;;2.80;;
39094;SDS011;24840;47.508;19.376;2024-02-14T08:24:33;10.13;;;6.33;;
39094;SDS011;24840;47.508;19.376;2024-02-14T08:26:59;10.60;;;6.13;;
39094;SDS011;24840;47.508;19.376;2024-02-14T08:29:25;11.00;;;6.00;;
39094;SDS011;24840;47.508;19.376;2024-02-14T08:31:51;16.20;;;6.10;;
39094;SDS011;24840;47.508;19.376;2024-02-14T08:34:18;13.20;;;6.03;;
39094;SDS011;24840;47.508;19.376;2024-02-14T08:36:44;12.70;;;7.33;;
39094;SDS011;24840;47.508;19.376;2024-02-14T08:39:10;10.60;;;5.77;;
39094;SDS011;24840;47.508;19.376;2024-02-14T08:41:37;7.67;;;5.70;;
39094;SDS011;24840;47.508;19.376;2024-02-14T08:44:04;13.23;;;6.93;;
39094;SDS011;24840;47.508;19.376;2024-02-14T08:46:31;12.00;;;6.40;;
39094;SDS011;24840;47.508;19.376;2024-02-14T08:49:05;10.70;;;6.10;;
39094;SDS011;24840;47.508;19.376;2024-02-14T08:51:34;12.67;;;5.50;;
39094;SDS011;24840;47.508;19.376;2024-02-14T08:54:00;12.80;;;6.77;;
39094;SDS011;24840;47.508;19.376;2024-02-14T08:56:30;13.77;;;7.67;;
39094;SDS011;24840;47.508;19.376;2024-02-14T08:58:58;9.43;;;5.33;;
39094;SDS011;24840;47.508;19.376;2024-02-14T09:01:24;9.53;;;6.53;;
39094;SDS011;24840;47.508;19.376;2024-02-14T09:03:52;11.23;;;7.17;;
39094;SDS011;24840;47.508;19.376;2024-02-14T09:06:18;12.57;;;7.73;;
39094;SDS011;24840;47.508;19.376;2024-02-14T09:08:44;10.95;;;6.50;;
39094;SDS011;24840;47.508;19.376;2024-02-14T09:11:10;11.68;;;7.60;;
39094;SDS011;24840;47.508;19.376;2024-02-14T09:13:37;9.95;;;6.80;;
39094;SDS011;24840;47.508;19.376;2024-02-14T09:16:05;13.27;;;7.15;;
39094;SDS011;24840;47.508;19.376;2024-02-14T09:18:31;8.95;;;5.80;;
39094;SDS011;24840;47.508;19.376;2024-02-14T09:20:57;7.57;;;5.78;;
39094;SDS011;24840;47.508;19.376;2024-02-14T09:23:23;11.02;;;5.80;;
39094;SDS011;24840;47.508;19.376;2024-02-14T09:25:50;10.05;;;5.75;;
39094;SDS011;24840;47.508;19.376;2024-02-14T09:28:16;8.30;;;5.40;;
39094;SDS011;24840;47.508;19.376;2024-02-14T09:30:42;8.48;;;5.32;;
39094;SDS011;24840;47.508;19.376;2024-02-14T09:33:08;8.40;;;5.00;;
39094;SDS011;24840;47.508;19.376;2024-02-14T09:35:36;10.07;;;5.03;;
39094;SDS011;24840;47.508;19.376;2024-02-14T09:38:09;6.47;;;4.63;;
39094;SDS011;24840;47.508;19.376;2024-02-14T09:40:35;6.97;;;4.45;;
39094;SDS011;24840;47.508;19.376;2024-02-14T09:43:01;5.70;;;3.63;;
39094;SDS011;24840;47.508;19.376;2024-02-14T09:45:28;5.60;;;3.70;;
39094;SDS011;24840;47.508;19.376;2024-02-14T09:47:58;6.05;;;3.88;;
39094;SDS011;24840;47.508;19.376;2024-02-14T09:50:24;7.63;;;4.15;;
39094;SDS011;24840;47.508;19.376;2024-02-14T09:52:52;5.47;;;3.80;;
39094;SDS011;24840;47.508;19.376;2024-02-14T09:55:19;4.32;;;3.63;;
39094;SDS011;24840;47.508;19.376;2024-02-14T09:57:46;9.63;;;4.78;;
39094;SDS011;24840;47.508;19.376;2024-02-14T10:00:12;10.50;;;3.92;;
39094;SDS011;24840;47.508;19.376;2024-02-14T10:02:42;7.25;;;4.10;;
39094;SDS011;24840;47.508;19.376;2024-02-14T10:05:10;8.55;;;4.63;;
39094;SDS011;24840;47.508;19.376;2024-02-14T10:07:43;4.05;;;3.17;;
39094;SDS011;24840;47.508;19.376;2024-02-14T10:10:11;8.27;;;3.97;;
39094;SDS011;24840;47.508;19.376;2024-02-14T10:12:38;6.47;;;4.22;;
39094;SDS011;24840;47.508;19.376;2024-02-14T10:15:06;4.82;;;3.38;;
39094;SDS011;24840;47.508;19.376;2024-02-14T10:17:33;7.50;;;4.57;;
39094;SDS011;24840;47.508;19.376;2024-02-14T10:19:59;5.63;;;3.88;;
39094;SDS011;24840;47.508;19.376;2024-02-14T10:22:36;8.73;;;4.30;;
39094;SDS011;24840;47.508;19.376;2024-02-14T10:25:03;7.45;;;3.80;;
39094;SDS011;24840;47.508;19.376;2024-02-14T10:27:33;6.78;;;4.15;;
39094;SDS011;24840;47.508;19.376;2024-02-14T10:29:59;53.47;;;6.03;;
39094;SDS011;24840;47.508;19.376;2024-02-14T10:32:25;9.55;;;4.28;;
39094;SDS011;24840;47.508;19.376;2024-02-14T10:34:51;12.38;;;3.97;;
39094;SDS011;24840;47.508;19.376;2024-02-14T10:37:17;5.32;;;3.28;;
39094;SDS011;24840;47.508;19.376;2024-02-14T10:39:44;5.93;;;3.47;;
39094;SDS011;24840;47.508;19.376;2024-02-14T10:42:12;5.38;;;3.42;;
39094;SDS011;24840;47.508;19.376;2024-02-14T10:44:38;5.10;;;3.58;;
39094;SDS011;24840;47.508;19.376;2024-02-14T10:47:05;6.65;;;4.22;;
39094;SDS011;24840;47.508;19.376;2024-02-14T10:49:32;5.95;;;3.83;;
39094;SDS011;24840;47.508;19.376;2024-02-14T10:51:58;7.95;;;3.90;;
39094;SDS011;24840;47.508;19.376;2024-02-14T10:54:27;7.50;;;3.72;;
39094;SDS011;24840;47.508;19.376;2024-02-14T10:56:53;8.85;;;3.97;;
39094;SDS011;24840;47.508;19.376;2024-02-14T10:59:21;4.80;;;3.53;;
39094;SDS011;24840;47.508;19.376;2024-02-14T11:01:49;4.82;;;3.28;;
39094;SDS011;24840;47.508;19.376;2024-02-14T11:04:15;6.13;;;3.63;;
39094;SDS011;24840;47.508;19.376;2024-02-14T11:06:51;6.47;;;3.40;;
39094;SDS011;24840;47.508;19.376;2024-02-14T11:09:19;6.57;;;3.63;;
39094;SDS011;24840;47.508;19.376;2024-02-14T11:11:48;5.25;;;3.53;;
39094;SDS011;24840;47.508;19.376;2024-02-14T11:14:20;6.93;;;3.00;;
39094;SDS011;24840;47.508;19.376;2024-02-14T11:16:52;6.85;;;3.70;;
39094;SDS011;24840;47.508;19.376;2024-02-14T11:19:18;5.15;;;3.65;;
39094;SDS011;24840;47.508;19.376;2024-02-14T11:21:45;7.18;;;4.07;;
39094;SDS011;24840;47.508;19.376;2024-02-14T11:24:14;5.97;;;3.13;;
39094;SDS011;24840;47.508;19.376;2024-02-14T11:26:46;7.45;;;4.07;;
39094;SDS011;24840;47.508;19.376;2024-02-14T11:29:18;8.55;;;4.55;;
39094;SDS011;24840;47.508;19.376;2024-02-14T11:31:47;5.95;;;3.90;;
39094;SDS011;24840;47.508;19.376;2024-02-14T11:34:14;12.15;;;4.30;;
39094;SDS011;24840;47.508;19.376;2024-02-14T11:36:45;5.18;;;3.15;;
39094;SDS011;24840;47.508;19.376;2024-02-14T11:39:11;5.10;;;2.78;;
39094;SDS011;24840;47.508;19.376;2024-02-14T11:41:39;5.43;;;2.88;;
39094;SDS011;24840;47.508;19.376;2024-02-14T11:44:14;4.18;;;2.92;;
39094;SDS011;24840;47.508;19.376;2024-02-14T11:46:40;5.00;;;2.92;;
39094;SDS011;24840;47.508;19.376;2024-02-14T11:49:07;4.47;;;2.33;;
39094;SDS011;24840;47.508;19.376;2024-02-14T11:51:34;5.57;;;2.38;;
39094;SDS011;24840;47.508;19.376;2024-02-14T11:54:04;3.42;;;2.10;;
39094;SDS011;24840;47.508;19.376;2024-02-14T11:56:31;3.45;;;2.28;;
39094;SDS011;24840;47.508;19.376;2024-02-14T11:59:08;2.88;;;1.83;;
39094;SDS011;24840;47.508;19.376;2024-02-14T12:01:37;7.65;;;2.80;;
39094;SDS011;24840;47.508;19.376;2024-02-14T12:04:04;4.88;;;2.97;;
39094;SDS011;24840;47.508;19.376;2024-02-14T12:06:48;5.55;;;2.40;;
39094;SDS011;24840;47.508;19.376;2024-02-14T12:09:14;4.28;;;2.33;;
39094;SDS011;24840;47.508;19.376;2024-02-14T12:11:41;4.38;;;2.53;;
39094;SDS011;24840;47.508;19.376;2024-02-14T12:14:26;5.90;;;2.70;;
39094;SDS011;24840;47.508;19.376;2024-02-14T12:17:03;4.95;;;3.15;;
39094;SDS011;24840;47.508;19.376;2024-02-14T12:19:31;4.63;;;2.83;;
39094;SDS011;24840;47.508;19.376;2024-02-14T12:21:59;4.93;;;2.22;;
39094;SDS011;24840;47.508;19.376;2024-02-14T12:24:29;4.20;;;2.72;;
39094;SDS011;24840;47.508;19.376;2024-02-14T12:26:55;7.93;;;3.38;;
39094;SDS011;24840;47.508;19.376;2024-02-14T12:29:23;5.47;;;2.22;;
39094;SDS011;24840;47.508;19.376;2024-02-14T12:31:49;3.38;;;2.30;;
39094;SDS011;24840;47.508;19.376;2024-02-14T12:34:15;4.00;;;2.33;;
39094;SDS011;24840;47.508;19.376;2024-02-14T12:36:43;3.80;;;2.60;;
39094;SDS011;24840;47.508;19.376;2024-02-14T12:42:19;3.17;;;2.33;;
39094;SDS011;24840;47.508;19.376;2024-02-14T12:44:50;4.38;;;2.53;;
39094;SDS011;24840;47.508;19.376;2024-02-14T12:47:17;3.85;;;2.35;;
39094;SDS011;24840;47.508;19.376;2024-02-14T12:49:43;3.78;;;2.40;;
39094;SDS011;24840;47.508;19.376;2024-02-14T12:52:10;2.85;;;2.35;;
39094;SDS011;24840;47.508;19.376;2024-02-14T12:54:36;6.55;;;3.00;;
39094;SDS011;24840;47.508;19.376;2024-02-14T12:57:03;4.30;;;2.83;;
39094;SDS011;24840;47.508;19.376;2024-02-14T12:59:29;3.45;;;2.30;;
39094;SDS011;24840;47.508;19.376;2024-02-14T13:01:55;5.38;;;2.45;;
39094;SDS011;24840;47.508;19.376;2024-02-14T13:04:21;2.88;;;1.80;;
39094;SDS011;24840;47.508;19.376;2024-02-14T13:06:50;2.38;;;1.90;;
39094;SDS011;24840;47.508;19.376;2024-02-14T13:09:17;4.07;;;2.20;;
39094;SDS011;24840;47.508;19.376;2024-02-14T13:11:43;2.83;;;1.70;;
39094;SDS011;24840;47.508;19.376;2024-02-14T13:14:09;3.80;;;2.00;;
39094;SDS011;24840;47.508;19.376;2024-02-14T13:16:35;2.65;;;1.35;;
39094;SDS011;24840;47.508;19.376;2024-02-14T13:19:01;3.35;;;1.17;;
39094;SDS011;24840;47.508;19.376;2024-02-14T13:21:28;2.00;;;0.88;;
39094;SDS011;24840;47.508;19.376;2024-02-14T13:23:54;5.40;;;1.30;;
39094;SDS011;24840;47.508;19.376;2024-02-14T13:26:22;2.53;;;1.13;;
39094;SDS011;24840;47.508;19.376;2024-02-14T13:28:49;2.15;;;0.95;;
39094;SDS011;24840;47.508;19.376;2024-02-14T13:31:15;1.73;;;0.98;;
39094;SDS011;24840;47.508;19.376;2024-02-14T13:33:46;1.35;;;0.82;;
39094;SDS011;24840;47.508;19.376;2024-02-14T13:36:12;4.18;;;1.17;;
39094;SDS011;24840;47.508;19.376;2024-02-14T13:38:40;2.13;;;1.38;;
39094;SDS011;24840;47.508;19.376;2024-02-14T13:41:06;3.50;;;1.52;;
39094;SDS011;24840;47.508;19.376;2024-02-14T13:46:02;3.53;;;1.48;;
39094;SDS011;24840;47.508;19.376;2024-02-14T13:48:30;3.92;;;1.73;;
39094;SDS011;24840;47.508;19.376;2024-02-14T13:50:57;2.38;;;1.10;;
39094;SDS011;24840;47.508;19.376;2024-02-14T13:53:23;8.60;;;2.85;;
39094;SDS011;24840;47.508;19.376;2024-02-14T13:58:34;4.85;;;1.33;;
39094;SDS011;24840;47.508;19.376;2024-02-14T14:01:03;3.42;;;1.23;;
39094;SDS011;24840;47.508;19.376;2024-02-14T14:03:29;1.98;;;1.38;;
39094;SDS011;24840;47.508;19.376;2024-02-14T14:05:57;4.60;;;1.20;;
39094;SDS011;24840;47.508;19.376;2024-02-14T14:08:24;7.32;;;2.80;;
39094;SDS011;24840;47.508;19.376;2024-02-14T14:10:50;2.17;;;0.82;;
39094;SDS011;24840;47.508;19.376;2024-02-14T14:13:17;2.83;;;1.85;;
39094;SDS011;24840;47.508;19.376;2024-02-14T14:15:43;8.82;;;5.30;;
39094;SDS011;24840;47.508;19.376;2024-02-14T14:18:09;8.23;;;4.00;;
39094;SDS011;24840;47.508;19.376;2024-02-14T14:20:36;8.27;;;4.50;;
39094;SDS011;24840;47.508;19.376;2024-02-14T14:23:02;6.18;;;3.45;;
39094;SDS011;24840;47.508;19.376;2024-02-14T14:25:28;3.92;;;2.00;;
39094;SDS011;24840;47.508;19.376;2024-02-14T14:27:56;6.15;;;2.00;;
39094;SDS011;24840;47.508;19.376;2024-02-14T14:30:22;7.47;;;3.60;;
39094;SDS011;24840;47.508;19.376;2024-02-14T14:32:48;2.53;;;1.40;;
39094;SDS011;24840;47.508;19.376;2024-02-14T14:35:14;8.82;;;3.00;;
39094;SDS011;24840;47.508;19.376;2024-02-14T14:37:40;11.63;;;6.65;;
39094;SDS011;24840;47.508;19.376;2024-02-14T14:40:07;13.60;;;4.70;;